sensor_id;sensor_type;location;lat;lon;timestamp;pressure;altitude;pressure_sealevel;temperature;humidity
77877;BME280;67251;50.844;7.978;2023-05-03T00:00:07;99939.69;;;-1.74;94.80
77877;BME280;67251;50.844;7.978;2023-05-03T00:02:34;99944.94;;;-1.74;95.03
77877;BME280;67251;50.844;7.978;2023-05-03T00:05:03;99943.44;;;-1.78;94.94
77877;BME280;67251;50.844;7.978;2023-05-03T00:07:28;99948.03;;;-1.82;95.07
77877;BME280;67251;50.844;7.978;2023-05-03T00:09:54;99938.81;;;-1.74;95.34
77877;BME280;67251;50.844;7.978;2023-05-03T00:12:19;99933.56;;;-1.74;95.06
77877;BME280;67251;50.844;7.978;2023-05-03T00:14:45;99939.22;;;-1.81;95.29
77877;BME280;67251;50.844;7.978;2023-05-03T00:17:10;99941.94;;;-1.82;95.15
77877;BME280;67251;50.844;7.978;2023-05-03T00:19:35;99940.63;;;-1.89;95.18
77877;BME280;67251;50.844;7.978;2023-05-03T00:22:01;99943.81;;;-1.98;95.13
77877;BME280;67251;50.844;7.978;2023-05-03T00:24:28;99934.09;;;-2.11;95.19
77877;BME280;67251;50.844;7.978;2023-05-03T00:26:53;99940.84;;;-2.21;95.32
77877;BME280;67251;50.844;7.978;2023-05-03T00:29:18;99941.19;;;-2.27;95.31
77877;BME280;67251;50.844;7.978;2023-05-03T00:31:46;99936.78;;;-2.26;95.38
77877;BME280;67251;50.844;7.978;2023-05-03T00:34:12;99932.59;;;-2.29;95.45
77877;BME280;67251;50.844;7.978;2023-05-03T00:36:37;99930.91;;;-2.30;95.73
77877;BME280;67251;50.844;7.978;2023-05-03T00:39:02;99923.97;;;-2.31;95.92
77877;BME280;67251;50.844;7.978;2023-05-03T00:41:28;99924.84;;;-2.30;95.84
77877;BME280;67251;50.844;7.978;2023-05-03T00:43:53;99919.66;;;-2.32;96.03
77877;BME280;67251;50.844;7.978;2023-05-03T00:46:19;99918.34;;;-2.39;95.95
77877;BME280;67251;50.844;7.978;2023-05-03T00:48:47;99913.75;;;-2.50;95.76
77877;BME280;67251;50.844;7.978;2023-05-03T00:51:14;99908.88;;;-2.56;95.95
77877;BME280;67251;50.844;7.978;2023-05-03T00:53:41;99906.00;;;-2.37;96.46
77877;BME280;67251;50.844;7.978;2023-05-03T00:56:06;99909.66;;;-2.25;96.61
77877;BME280;67251;50.844;7.978;2023-05-03T00:58:33;99907.50;;;-2.19;96.82
77877;BME280;67251;50.844;7.978;2023-05-03T01:01:01;99902.63;;;-2.25;96.64
77877;BME280;67251;50.844;7.978;2023-05-03T01:03:27;99904.75;;;-2.17;96.66
77877;BME280;67251;50.844;7.978;2023-05-03T01:08:54;99907.13;;;-2.27;96.89
77877;BME280;67251;50.844;7.978;2023-05-03T01:11:26;99911.25;;;-2.23;96.85
77877;BME280;67251;50.844;7.978;2023-05-03T01:13:54;99915.75;;;-2.25;96.84
77877;BME280;67251;50.844;7.978;2023-05-03T01:16:34;99913.84;;;-2.37;96.96
77877;BME280;67251;50.844;7.978;2023-05-03T01:19:06;99909.34;;;-2.49;96.81
77877;BME280;67251;50.844;7.978;2023-05-03T01:21:39;99914.50;;;-2.62;96.36
77877;BME280;67251;50.844;7.978;2023-05-03T01:24:10;99910.81;;;-2.74;96.44
77877;BME280;67251;50.844;7.978;2023-05-03T01:26:37;99913.69;;;-2.78;96.78
77877;BME280;67251;50.844;7.978;2023-05-03T01:29:03;99912.28;;;-2.84;96.89
77877;BME280;67251;50.844;7.978;2023-05-03T01:31:42;99913.41;;;-2.88;96.62
77877;BME280;67251;50.844;7.978;2023-05-03T01:37:13;99915.34;;;-2.92;96.75
77877;BME280;67251;50.844;7.978;2023-05-03T01:40:14;99922.47;;;-2.94;96.74
77877;BME280;67251;50.844;7.978;2023-05-03T01:42:41;99922.94;;;-2.87;97.26
77877;BME280;67251;50.844;7.978;2023-05-03T01:45:07;99917.16;;;-2.78;97.33
77877;BME280;67251;50.844;7.978;2023-05-03T01:47:32;99920.31;;;-2.87;96.94
77877;BME280;67251;50.844;7.978;2023-05-03T01:53:33;99918.44;;;-2.99;96.91
77877;BME280;67251;50.844;7.978;2023-05-03T01:55:59;99927.22;;;-3.00;96.87
77877;BME280;67251;50.844;7.978;2023-05-03T01:58:24;99930.09;;;-3.05;97.10
77877;BME280;67251;50.844;7.978;2023-05-03T02:00:50;99934.84;;;-3.12;97.11
77877;BME280;67251;50.844;7.978;2023-05-03T02:03:16;99925.66;;;-3.19;96.95
77877;BME280;67251;50.844;7.978;2023-05-03T02:05:42;99921.63;;;-3.24;97.22
77877;BME280;67251;50.844;7.978;2023-05-03T02:08:07;99925.34;;;-3.28;97.09
77877;BME280;67251;50.844;7.978;2023-05-03T02:10:33;99925.03;;;-3.38;96.61
77877;BME280;67251;50.844;7.978;2023-05-03T02:12:58;99928.97;;;-3.31;97.24
77877;BME280;67251;50.844;7.978;2023-05-03T02:15:24;99923.03;;;-3.19;97.24
77877;BME280;67251;50.844;7.978;2023-05-03T02:17:49;99926.66;;;-3.21;97.22
77877;BME280;67251;50.844;7.978;2023-05-03T02:20:15;99923.72;;;-3.31;96.92
77877;BME280;67251;50.844;7.978;2023-05-03T02:22:40;99930.25;;;-3.38;97.13
77877;BME280;67251;50.844;7.978;2023-05-03T02:25:06;99932.44;;;-3.46;97.15
77877;BME280;67251;50.844;7.978;2023-05-03T02:27:32;99939.88;;;-3.54;97.10
77877;BME280;67251;50.844;7.978;2023-05-03T02:29:57;99939.63;;;-3.50;97.60
77877;BME280;67251;50.844;7.978;2023-05-03T02:32:23;99949.41;;;-3.38;97.35
77877;BME280;67251;50.844;7.978;2023-05-03T02:34:48;99958.09;;;-3.37;97.33
77877;BME280;67251;50.844;7.978;2023-05-03T02:37:14;99956.22;;;-3.35;97.73
77877;BME280;67251;50.844;7.978;2023-05-03T02:39:40;99958.19;;;-3.39;97.48
77877;BME280;67251;50.844;7.978;2023-05-03T02:42:05;99949.47;;;-3.39;97.66
77877;BME280;67251;50.844;7.978;2023-05-03T02:44:31;99949.84;;;-3.45;97.50
77877;BME280;67251;50.844;7.978;2023-05-03T02:46:57;99948.91;;;-3.60;97.51
77877;BME280;67251;50.844;7.978;2023-05-03T02:49:22;99947.53;;;-3.67;97.48
77877;BME280;67251;50.844;7.978;2023-05-03T02:51:47;99936.78;;;-3.61;97.78
77877;BME280;67251;50.844;7.978;2023-05-03T02:54:13;99948.81;;;-3.58;97.80
77877;BME280;67251;50.844;7.978;2023-05-03T02:56:38;99948.06;;;-3.61;97.81
77877;BME280;67251;50.844;7.978;2023-05-03T02:59:04;99945.31;;;-3.57;97.67
77877;BME280;67251;50.844;7.978;2023-05-03T03:01:29;99943.78;;;-3.62;97.94
77877;BME280;67251;50.844;7.978;2023-05-03T03:03:55;99944.09;;;-3.68;97.73
77877;BME280;67251;50.844;7.978;2023-05-03T03:06:20;99938.34;;;-3.58;97.81
77877;BME280;67251;50.844;7.978;2023-05-03T03:08:46;99941.81;;;-3.58;98.07
77877;BME280;67251;50.844;7.978;2023-05-03T03:11:11;99951.28;;;-3.55;98.16
77877;BME280;67251;50.844;7.978;2023-05-03T03:13:37;99956.50;;;-3.55;98.07
77877;BME280;67251;50.844;7.978;2023-05-03T03:16:08;99947.91;;;-3.57;98.00
77877;BME280;67251;50.844;7.978;2023-05-03T03:18:33;99959.13;;;-3.55;98.41
77877;BME280;67251;50.844;7.978;2023-05-03T03:21:02;99950.34;;;-3.54;98.08
77877;BME280;67251;50.844;7.978;2023-05-03T03:23:28;99954.41;;;-3.65;98.24
77877;BME280;67251;50.844;7.978;2023-05-03T03:25:53;99959.03;;;-3.70;98.05
77877;BME280;67251;50.844;7.978;2023-05-03T03:28:19;99963.19;;;-3.66;98.48
77877;BME280;67251;50.844;7.978;2023-05-03T03:30:44;99964.84;;;-3.65;98.30
77877;BME280;67251;50.844;7.978;2023-05-03T03:33:10;99970.84;;;-3.63;98.04
77877;BME280;67251;50.844;7.978;2023-05-03T03:35:36;99971.44;;;-3.73;98.22
77877;BME280;67251;50.844;7.978;2023-05-03T03:38:02;99966.88;;;-3.86;98.13
77877;BME280;67251;50.844;7.978;2023-05-03T03:40:27;99958.00;;;-3.83;97.96
77877;BME280;67251;50.844;7.978;2023-05-03T03:42:52;99965.34;;;-3.74;97.90
77877;BME280;67251;50.844;7.978;2023-05-03T03:45:18;99956.25;;;-3.67;98.22
77877;BME280;67251;50.844;7.978;2023-05-03T03:47:43;99957.50;;;-3.58;98.34
77877;BME280;67251;50.844;7.978;2023-05-03T03:50:09;99958.09;;;-3.53;98.37
77877;BME280;67251;50.844;7.978;2023-05-03T03:52:34;99944.38;;;-3.56;97.91
77877;BME280;67251;50.844;7.978;2023-05-03T03:54:59;99944.44;;;-3.58;98.07
77877;BME280;67251;50.844;7.978;2023-05-03T03:57:25;99936.31;;;-3.53;98.18
77877;BME280;67251;50.844;7.978;2023-05-03T03:59:54;99936.16;;;-3.50;98.58
77877;BME280;67251;50.844;7.978;2023-05-03T04:02:19;99936.16;;;-3.50;98.54
77877;BME280;67251;50.844;7.978;2023-05-03T04:04:45;99942.75;;;-3.43;98.86
77877;BME280;67251;50.844;7.978;2023-05-03T04:07:11;99938.28;;;-3.41;98.89
77877;BME280;67251;50.844;7.978;2023-05-03T04:09:37;99933.03;;;-3.41;99.15
77877;BME280;67251;50.844;7.978;2023-05-03T04:12:02;99933.88;;;-3.41;99.14
77877;BME280;67251;50.844;7.978;2023-05-03T04:14:28;99926.44;;;-3.32;99.47
77877;BME280;67251;50.844;7.978;2023-05-03T04:16:53;99930.97;;;-3.20;99.28
77877;BME280;67251;50.844;7.978;2023-05-03T04:19:18;99928.03;;;-3.14;99.58
77877;BME280;67251;50.844;7.978;2023-05-03T04:21:46;99931.63;;;-3.17;99.41
77877;BME280;67251;50.844;7.978;2023-05-03T04:24:14;99937.72;;;-3.16;99.61
77877;BME280;67251;50.844;7.978;2023-05-03T04:26:40;99929.69;;;-3.13;99.63
77877;BME280;67251;50.844;7.978;2023-05-03T04:29:05;99934.50;;;-3.05;99.95
77877;BME280;67251;50.844;7.978;2023-05-03T04:31:31;99936.75;;;-2.99;99.75
77877;BME280;67251;50.844;7.978;2023-05-03T04:33:56;99934.81;;;-2.96;99.88
77877;BME280;67251;50.844;7.978;2023-05-03T04:36:22;99940.38;;;-2.86;100.00
77877;BME280;67251;50.844;7.978;2023-05-03T04:38:50;99935.69;;;-2.81;100.00
77877;BME280;67251;50.844;7.978;2023-05-03T04:41:15;99937.38;;;-2.80;100.00
77877;BME280;67251;50.844;7.978;2023-05-03T04:43:41;99945.72;;;-2.73;100.00
77877;BME280;67251;50.844;7.978;2023-05-03T04:46:07;99935.72;;;-2.67;100.00
77877;BME280;67251;50.844;7.978;2023-05-03T04:48:33;99934.41;;;-2.60;100.00
77877;BME280;67251;50.844;7.978;2023-05-03T04:51:00;99936.50;;;-2.50;100.00
77877;BME280;67251;50.844;7.978;2023-05-03T04:53:26;99935.88;;;-2.40;100.00
77877;BME280;67251;50.844;7.978;2023-05-03T04:55:51;99933.59;;;-2.32;100.00
77877;BME280;67251;50.844;7.978;2023-05-03T04:58:16;99932.31;;;-2.24;100.00
77877;BME280;67251;50.844;7.978;2023-05-03T05:00:44;99940.63;;;-2.18;100.00
77877;BME280;67251;50.844;7.978;2023-05-03T05:03:10;99931.81;;;-2.17;100.00
77877;BME280;67251;50.844;7.978;2023-05-03T05:05:35;99939.91;;;-2.06;100.00
77877;BME280;67251;50.844;7.978;2023-05-03T05:08:01;99929.97;;;-2.00;100.00
77877;BME280;67251;50.844;7.978;2023-05-03T05:10:26;99932.00;;;-1.91;100.00
77877;BME280;67251;50.844;7.978;2023-05-03T05:12:51;99935.19;;;-1.86;100.00
77877;BME280;67251;50.844;7.978;2023-05-03T05:15:17;99936.69;;;-1.82;100.00
77877;BME280;67251;50.844;7.978;2023-05-03T05:17:43;99929.56;;;-1.80;100.00
77877;BME280;67251;50.844;7.978;2023-05-03T05:20:09;99925.97;;;-1.79;100.00
77877;BME280;67251;50.844;7.978;2023-05-03T05:22:40;99929.38;;;-1.77;100.00
77877;BME280;67251;50.844;7.978;2023-05-03T05:25:06;99922.06;;;-1.72;100.00
77877;BME280;67251;50.844;7.978;2023-05-03T05:27:33;99921.66;;;-1.66;100.00
77877;BME280;67251;50.844;7.978;2023-05-03T05:29:58;99922.41;;;-1.64;100.00
77877;BME280;67251;50.844;7.978;2023-05-03T05:32:23;99927.91;;;-1.54;100.00
77877;BME280;67251;50.844;7.978;2023-05-03T05:34:49;99936.06;;;-1.44;100.00
77877;BME280;67251;50.844;7.978;2023-05-03T05:37:21;99943.22;;;-1.34;100.00
77877;BME280;67251;50.844;7.978;2023-05-03T05:39:47;99944.31;;;-1.23;100.00
77877;BME280;67251;50.844;7.978;2023-05-03T05:42:13;99946.84;;;-1.22;99.92
77877;BME280;67251;50.844;7.978;2023-05-03T05:44:38;99951.28;;;-1.10;99.87
77877;BME280;67251;50.844;7.978;2023-05-03T05:47:04;99955.75;;;-0.97;99.87
77877;BME280;67251;50.844;7.978;2023-05-03T05:49:30;99955.16;;;-0.88;99.33
77877;BME280;67251;50.844;7.978;2023-05-03T05:51:55;99965.06;;;-0.79;99.16
77877;BME280;67251;50.844;7.978;2023-05-03T05:54:21;99959.91;;;-0.68;98.74
77877;BME280;67251;50.844;7.978;2023-05-03T05:56:47;99966.25;;;-0.58;98.44
77877;BME280;67251;50.844;7.978;2023-05-03T05:59:12;99965.53;;;-0.47;97.84
77877;BME280;67251;50.844;7.978;2023-05-03T06:01:38;99968.38;;;-0.37;97.46
77877;BME280;67251;50.844;7.978;2023-05-03T06:04:08;99965.34;;;-0.31;97.15
77877;BME280;67251;50.844;7.978;2023-05-03T06:06:34;99965.66;;;-0.23;97.38
77877;BME280;67251;50.844;7.978;2023-05-03T06:08:59;99955.22;;;-0.12;97.02
77877;BME280;67251;50.844;7.978;2023-05-03T06:11:24;99951.00;;;-0.02;97.20
77877;BME280;67251;50.844;7.978;2023-05-03T06:13:50;99961.72;;;0.08;96.80
77877;BME280;67251;50.844;7.978;2023-05-03T06:16:16;99955.81;;;0.17;96.53
77877;BME280;67251;50.844;7.978;2023-05-03T06:18:41;99954.84;;;0.31;96.59
77877;BME280;67251;50.844;7.978;2023-05-03T06:21:07;99958.75;;;0.38;95.79
77877;BME280;67251;50.844;7.978;2023-05-03T06:23:32;99958.09;;;0.47;94.83
77877;BME280;67251;50.844;7.978;2023-05-03T06:25:57;99954.06;;;0.55;92.04
77877;BME280;67251;50.844;7.978;2023-05-03T06:28:23;99950.22;;;0.71;92.06
77877;BME280;67251;50.844;7.978;2023-05-03T06:30:49;99946.34;;;0.88;92.12
77877;BME280;67251;50.844;7.978;2023-05-03T06:33:14;99950.50;;;1.04;91.64
77877;BME280;67251;50.844;7.978;2023-05-03T06:35:40;99950.06;;;1.21;91.46
77877;BME280;67251;50.844;7.978;2023-05-03T06:38:06;99958.19;;;2.76;87.91
77877;BME280;67251;50.844;7.978;2023-05-03T06:40:32;99941.56;;;7.42;70.86
77877;BME280;67251;50.844;7.978;2023-05-03T06:42:57;99927.38;;;11.73;56.26
77877;BME280;67251;50.844;7.978;2023-05-03T06:45:23;99924.41;;;14.76;47.17
77877;BME280;67251;50.844;7.978;2023-05-03T06:47:49;99917.13;;;17.07;41.71
77877;BME280;67251;50.844;7.978;2023-05-03T06:50:14;99919.25;;;18.67;37.08
77877;BME280;67251;50.844;7.978;2023-05-03T06:52:39;99915.66;;;19.86;33.89
77877;BME280;67251;50.844;7.978;2023-05-03T06:55:06;99918.69;;;20.89;31.59
77877;BME280;67251;50.844;7.978;2023-05-03T06:57:31;99913.97;;;21.75;30.48
77877;BME280;67251;50.844;7.978;2023-05-03T06:59:57;99911.41;;;22.63;28.95
77877;BME280;67251;50.844;7.978;2023-05-03T07:02:22;99913.50;;;23.00;26.07
77877;BME280;67251;50.844;7.978;2023-05-03T07:04:49;99909.19;;;23.63;26.40
77877;BME280;67251;50.844;7.978;2023-05-03T07:07:15;99904.97;;;24.19;24.62
77877;BME280;67251;50.844;7.978;2023-05-03T07:09:40;99905.63;;;23.03;24.05
77877;BME280;67251;50.844;7.978;2023-05-03T07:12:06;99914.44;;;22.88;24.72
77877;BME280;67251;50.844;7.978;2023-05-03T07:14:31;99910.22;;;22.98;25.14
77877;BME280;67251;50.844;7.978;2023-05-03T07:16:56;99911.59;;;22.78;23.83
77877;BME280;67251;50.844;7.978;2023-05-03T07:19:22;99913.09;;;20.96;25.44
77877;BME280;67251;50.844;7.978;2023-05-03T07:21:47;99921.19;;;20.03;26.81
77877;BME280;67251;50.844;7.978;2023-05-03T07:24:13;99915.63;;;20.33;26.77
77877;BME280;67251;50.844;7.978;2023-05-03T07:26:38;99934.78;;;16.65;31.24
77877;BME280;67251;50.844;7.978;2023-05-03T07:29:03;99917.69;;;18.77;29.18
77877;BME280;67251;50.844;7.978;2023-05-03T07:31:29;99908.69;;;18.77;28.60
77877;BME280;67251;50.844;7.978;2023-05-03T07:33:55;99900.66;;;19.30;28.15
77877;BME280;67251;50.844;7.978;2023-05-03T07:36:20;99895.53;;;20.75;26.21
77877;BME280;67251;50.844;7.978;2023-05-03T07:38:46;99896.25;;;20.82;25.64
77877;BME280;67251;50.844;7.978;2023-05-03T07:41:11;99892.28;;;21.18;26.13
77877;BME280;67251;50.844;7.978;2023-05-03T07:43:36;99894.31;;;20.94;25.78
77877;BME280;67251;50.844;7.978;2023-05-03T07:46:02;99892.13;;;20.15;26.71
77877;BME280;67251;50.844;7.978;2023-05-03T07:48:27;99881.03;;;21.43;25.12
77877;BME280;67251;50.844;7.978;2023-05-03T07:50:53;99887.63;;;21.98;24.21
77877;BME280;67251;50.844;7.978;2023-05-03T07:53:18;99883.97;;;21.92;24.91
77877;BME280;67251;50.844;7.978;2023-05-03T07:55:44;99892.09;;;21.36;25.11
77877;BME280;67251;50.844;7.978;2023-05-03T07:58:09;99901.31;;;20.26;26.36
77877;BME280;67251;50.844;7.978;2023-05-03T08:00:34;99896.06;;;21.46;26.08
77877;BME280;67251;50.844;7.978;2023-05-03T08:03:00;99888.38;;;21.76;24.52
77877;BME280;67251;50.844;7.978;2023-05-03T08:05:28;99879.63;;;22.52;23.63
77877;BME280;67251;50.844;7.978;2023-05-03T08:07:53;99881.06;;;21.60;25.32
77877;BME280;67251;50.844;7.978;2023-05-03T08:10:19;99873.88;;;21.37;24.00
77877;BME280;67251;50.844;7.978;2023-05-03T08:12:45;99877.53;;;21.98;24.29
77877;BME280;67251;50.844;7.978;2023-05-03T08:15:10;99882.69;;;20.99;25.28
77877;BME280;67251;50.844;7.978;2023-05-03T08:17:43;99870.78;;;21.84;24.65
77877;BME280;67251;50.844;7.978;2023-05-03T08:20:09;99866.59;;;22.81;23.32
77877;BME280;67251;50.844;7.978;2023-05-03T08:22:37;99869.88;;;22.56;23.34
77877;BME280;67251;50.844;7.978;2023-05-03T08:25:03;99858.88;;;23.59;22.61
77877;BME280;67251;50.844;7.978;2023-05-03T08:27:29;99861.28;;;21.19;24.17
77877;BME280;67251;50.844;7.978;2023-05-03T08:29:55;99861.63;;;21.39;24.46
77877;BME280;67251;50.844;7.978;2023-05-03T08:32:21;99866.75;;;20.10;26.57
77877;BME280;67251;50.844;7.978;2023-05-03T08:34:48;99857.44;;;20.58;26.15
77877;BME280;67251;50.844;7.978;2023-05-03T08:37:14;99862.44;;;20.37;26.61
77877;BME280;67251;50.844;7.978;2023-05-03T08:39:39;99863.75;;;21.04;25.18
77877;BME280;67251;50.844;7.978;2023-05-03T08:42:06;99852.50;;;22.18;24.36
77877;BME280;67251;50.844;7.978;2023-05-03T08:44:35;99845.66;;;23.45;23.20
77877;BME280;67251;50.844;7.978;2023-05-03T08:47:02;99840.84;;;23.58;22.74
77877;BME280;67251;50.844;7.978;2023-05-03T08:49:30;99841.34;;;23.55;22.28
77877;BME280;67251;50.844;7.978;2023-05-03T08:51:57;99842.41;;;23.16;22.44
77877;BME280;67251;50.844;7.978;2023-05-03T08:54:24;99843.28;;;23.22;22.50
77877;BME280;67251;50.844;7.978;2023-05-03T08:56:49;99844.25;;;23.06;22.70
77877;BME280;67251;50.844;7.978;2023-05-03T08:59:15;99843.50;;;22.01;24.12
77877;BME280;67251;50.844;7.978;2023-05-03T09:01:41;99839.16;;;22.65;23.29
77877;BME280;67251;50.844;7.978;2023-05-03T09:04:08;99850.19;;;20.63;25.76
77877;BME280;67251;50.844;7.978;2023-05-03T09:06:35;99842.31;;;21.75;24.82
77877;BME280;67251;50.844;7.978;2023-05-03T09:09:02;99841.81;;;22.38;23.38
77877;BME280;67251;50.844;7.978;2023-05-03T09:11:32;99842.09;;;22.37;23.20
77877;BME280;67251;50.844;7.978;2023-05-03T09:14:14;99834.44;;;22.83;23.39
77877;BME280;67251;50.844;7.978;2023-05-03T09:16:42;99835.13;;;21.68;24.06
77877;BME280;67251;50.844;7.978;2023-05-03T09:19:11;99831.81;;;22.44;23.07
77877;BME280;67251;50.844;7.978;2023-05-03T09:21:42;99822.72;;;23.14;21.60
77877;BME280;67251;50.844;7.978;2023-05-03T09:24:26;99819.19;;;22.87;23.17
77877;BME280;67251;50.844;7.978;2023-05-03T09:26:51;99824.53;;;22.77;23.21
77877;BME280;67251;50.844;7.978;2023-05-03T09:29:32;99819.53;;;23.97;21.93
77877;BME280;67251;50.844;7.978;2023-05-03T09:32:04;99835.53;;;22.16;24.08
77877;BME280;67251;50.844;7.978;2023-05-03T09:34:31;99835.88;;;21.30;24.25
77877;BME280;67251;50.844;7.978;2023-05-03T09:36:57;99836.28;;;21.22;24.94
77877;BME280;67251;50.844;7.978;2023-05-03T09:39:22;99835.56;;;21.27;24.95
77877;BME280;67251;50.844;7.978;2023-05-03T09:41:48;99838.47;;;20.91;24.75
77877;BME280;67251;50.844;7.978;2023-05-03T09:44:13;99843.22;;;21.30;24.95
77877;BME280;67251;50.844;7.978;2023-05-03T09:47:05;99837.66;;;21.36;23.92
77877;BME280;67251;50.844;7.978;2023-05-03T09:49:31;99828.16;;;21.56;25.52
77877;BME280;67251;50.844;7.978;2023-05-03T09:52:01;99820.94;;;21.83;24.62
77877;BME280;67251;50.844;7.978;2023-05-03T09:54:28;99818.38;;;22.37;24.06
77877;BME280;67251;50.844;7.978;2023-05-03T09:56:55;99824.22;;;21.68;23.95
77877;BME280;67251;50.844;7.978;2023-05-03T09:59:22;99828.75;;;20.38;25.72
77877;BME280;67251;50.844;7.978;2023-05-03T10:01:47;99815.94;;;20.79;25.68
77877;BME280;67251;50.844;7.978;2023-05-03T10:04:17;99823.94;;;21.31;25.28
77877;BME280;67251;50.844;7.978;2023-05-03T10:06:46;99816.00;;;20.27;25.72
77877;BME280;67251;50.844;7.978;2023-05-03T10:09:17;99815.81;;;21.03;24.08
77877;BME280;67251;50.844;7.978;2023-05-03T10:11:53;99819.06;;;21.33;23.44
77877;BME280;67251;50.844;7.978;2023-05-03T10:14:20;99817.69;;;20.85;23.22
77877;BME280;67251;50.844;7.978;2023-05-03T10:16:48;99812.28;;;21.19;23.64
77877;BME280;67251;50.844;7.978;2023-05-03T10:22:18;99807.00;;;20.96;23.67
77877;BME280;67251;50.844;7.978;2023-05-03T10:27:21;99801.78;;;19.26;26.50
77877;BME280;67251;50.844;7.978;2023-05-03T10:29:47;99806.72;;;18.76;26.80
77877;BME280;67251;50.844;7.978;2023-05-03T10:35:02;99788.56;;;19.30;27.55
77877;BME280;67251;50.844;7.978;2023-05-03T10:37:29;99784.91;;;19.48;27.08
77877;BME280;67251;50.844;7.978;2023-05-03T10:40:04;99786.44;;;19.20;26.18
77877;BME280;67251;50.844;7.978;2023-05-03T10:42:30;99788.06;;;18.98;25.18
77877;BME280;67251;50.844;7.978;2023-05-03T10:44:55;99790.66;;;19.04;25.27
77877;BME280;67251;50.844;7.978;2023-05-03T10:47:22;99780.09;;;18.73;25.86
77877;BME280;67251;50.844;7.978;2023-05-03T10:55:15;99782.00;;;18.24;28.61
77877;BME280;67251;50.844;7.978;2023-05-03T10:57:43;99767.88;;;18.03;26.74
77877;BME280;67251;50.844;7.978;2023-05-03T11:00:17;99777.22;;;17.46;26.91
77877;BME280;67251;50.844;7.978;2023-05-03T11:03:06;99769.25;;;17.76;29.19
77877;BME280;67251;50.844;7.978;2023-05-03T11:05:36;99770.94;;;17.70;26.81
77877;BME280;67251;50.844;7.978;2023-05-03T11:08:19;99763.88;;;17.69;27.91
77877;BME280;67251;50.844;7.978;2023-05-03T11:10:47;99761.75;;;17.71;28.27
77877;BME280;67251;50.844;7.978;2023-05-03T11:13:13;99766.59;;;17.69;28.09
77877;BME280;67251;50.844;7.978;2023-05-03T11:15:39;99758.56;;;17.37;28.11
77877;BME280;67251;50.844;7.978;2023-05-03T11:18:08;99757.44;;;17.45;27.92
77877;BME280;67251;50.844;7.978;2023-05-03T11:20:35;99749.13;;;17.65;28.01
77877;BME280;67251;50.844;7.978;2023-05-03T11:23:01;99730.53;;;17.69;28.89
77877;BME280;67251;50.844;7.978;2023-05-03T11:25:28;99738.22;;;18.08;30.29
77877;BME280;67251;50.844;7.978;2023-05-03T11:27:53;99726.66;;;18.31;29.42
77877;BME280;67251;50.844;7.978;2023-05-03T11:30:19;99726.94;;;18.53;28.42
77877;BME280;67251;50.844;7.978;2023-05-03T11:32:44;99737.38;;;18.26;27.45
77877;BME280;67251;50.844;7.978;2023-05-03T11:35:12;99741.47;;;17.99;28.28
77877;BME280;67251;50.844;7.978;2023-05-03T11:37:38;99737.16;;;18.09;27.35
77877;BME280;67251;50.844;7.978;2023-05-03T11:40:05;99726.66;;;17.83;27.64
77877;BME280;67251;50.844;7.978;2023-05-03T11:42:32;99731.69;;;17.43;27.58
77877;BME280;67251;50.844;7.978;2023-05-03T11:44:59;99726.47;;;17.23;29.54
77877;BME280;67251;50.844;7.978;2023-05-03T11:47:24;99728.41;;;17.77;28.07
77877;BME280;67251;50.844;7.978;2023-05-03T11:49:59;99723.28;;;17.69;27.02
77877;BME280;67251;50.844;7.978;2023-05-03T11:52:25;99722.44;;;17.87;28.10
77877;BME280;67251;50.844;7.978;2023-05-03T11:54:52;99719.22;;;17.60;28.81
77877;BME280;67251;50.844;7.978;2023-05-03T11:57:17;99712.28;;;17.82;28.74
77877;BME280;67251;50.844;7.978;2023-05-03T11:59:43;99710.88;;;17.80;26.90
77877;BME280;67251;50.844;7.978;2023-05-03T12:02:14;99700.81;;;18.17;26.28
77877;BME280;67251;50.844;7.978;2023-05-03T12:04:41;99683.94;;;18.15;27.44
77877;BME280;67251;50.844;7.978;2023-05-03T12:07:09;99704.59;;;18.16;27.60
77877;BME280;67251;50.844;7.978;2023-05-03T12:09:35;99696.34;;;17.56;27.47
77877;BME280;67251;50.844;7.978;2023-05-03T12:12:01;99708.69;;;17.52;27.66
77877;BME280;67251;50.844;7.978;2023-05-03T12:14:27;99707.16;;;17.37;28.41
77877;BME280;67251;50.844;7.978;2023-05-03T12:16:53;99691.00;;;17.31;29.31
77877;BME280;67251;50.844;7.978;2023-05-03T12:19:28;99698.59;;;17.22;28.23
77877;BME280;67251;50.844;7.978;2023-05-03T12:21:54;99689.59;;;17.65;29.74
77877;BME280;67251;50.844;7.978;2023-05-03T12:24:20;99689.22;;;17.80;28.66
77877;BME280;67251;50.844;7.978;2023-05-03T12:26:48;99687.31;;;17.99;27.83
77877;BME280;67251;50.844;7.978;2023-05-03T12:29:14;99675.78;;;18.33;29.42
77877;BME280;67251;50.844;7.978;2023-05-03T12:31:40;99690.13;;;18.64;27.30
77877;BME280;67251;50.844;7.978;2023-05-03T12:34:06;99671.97;;;18.23;26.75
77877;BME280;67251;50.844;7.978;2023-05-03T12:36:32;99674.09;;;17.91;26.67
77877;BME280;67251;50.844;7.978;2023-05-03T12:39:01;99674.72;;;17.37;27.67
77877;BME280;67251;50.844;7.978;2023-05-03T12:41:27;99682.19;;;17.17;28.22
77877;BME280;67251;50.844;7.978;2023-05-03T12:43:56;99671.53;;;17.59;26.77
77877;BME280;67251;50.844;7.978;2023-05-03T12:46:22;99668.94;;;18.01;27.90
77877;BME280;67251;50.844;7.978;2023-05-03T12:48:48;99670.06;;;18.11;26.43
77877;BME280;67251;50.844;7.978;2023-05-03T12:51:14;99669.78;;;18.43;26.45
77877;BME280;67251;50.844;7.978;2023-05-03T12:53:39;99669.84;;;18.13;26.59
77877;BME280;67251;50.844;7.978;2023-05-03T12:56:05;99662.19;;;17.92;25.63
77877;BME280;67251;50.844;7.978;2023-05-03T12:58:31;99665.25;;;17.83;25.40
77877;BME280;67251;50.844;7.978;2023-05-03T13:00:56;99659.19;;;18.00;26.11
77877;BME280;67251;50.844;7.978;2023-05-03T13:03:22;99652.66;;;17.89;26.80
77877;BME280;67251;50.844;7.978;2023-05-03T13:05:48;99650.41;;;18.16;25.76
77877;BME280;67251;50.844;7.978;2023-05-03T13:08:13;99648.47;;;18.35;24.95
77877;BME280;67251;50.844;7.978;2023-05-03T13:10:39;99655.63;;;17.32;25.92
77877;BME280;67251;50.844;7.978;2023-05-03T13:13:05;99651.72;;;17.47;26.36
77877;BME280;67251;50.844;7.978;2023-05-03T13:15:33;99648.06;;;17.90;25.84
77877;BME280;67251;50.844;7.978;2023-05-03T13:17:59;99636.22;;;18.56;25.05
77877;BME280;67251;50.844;7.978;2023-05-03T13:20:27;99633.78;;;18.54;25.03